createdAt,value
2023-04-23T00:00:38.865Z,84.30
2023-04-23T00:03:10.529Z,84.30
2023-04-23T00:05:38.980Z,84.30
2023-04-23T00:08:07.304Z,84.30
2023-04-23T00:10:35.460Z,84.30
2023-04-23T00:13:04.973Z,84.40
2023-04-23T00:15:33.226Z,84.40
2023-04-23T00:18:00.979Z,84.90
2023-04-23T00:20:28.790Z,84.40
2023-04-23T00:22:56.522Z,85.30
2023-04-23T00:25:24.301Z,84.50
2023-04-23T00:27:52.044Z,84.60
2023-04-23T00:30:21.153Z,84.60
2023-04-23T00:32:49.001Z,84.70
2023-04-23T00:35:16.745Z,84.60
2023-04-23T00:37:44.459Z,84.60
2023-04-23T00:40:12.731Z,84.60
2023-04-23T00:42:41.215Z,84.80
2023-04-23T00:45:09.864Z,84.80
2023-04-23T00:47:41.284Z,84.80
2023-04-23T00:50:09.887Z,84.80
2023-04-23T00:52:39.050Z,84.80
2023-04-23T00:55:08.440Z,84.80
2023-04-23T00:57:37.277Z,84.80
2023-04-23T01:00:07.249Z,85.00
2023-04-23T01:05:34.651Z,85.00
2023-04-23T01:12:08.646Z,84.90
2023-04-23T01:18:13.887Z,85.10
2023-04-23T01:26:44.955Z,85.20
2023-04-23T01:34:59.295Z,85.30
2023-04-23T01:38:06.808Z,85.30
2023-04-23T01:43:38.910Z,85.50
2023-04-23T01:46:26.856Z,85.50
2023-04-23T01:52:12.843Z,85.50
2023-04-23T01:54:46.055Z,85.50
2023-04-23T01:57:37.256Z,85.50
2023-04-23T02:00:24.832Z,85.70
2023-04-23T02:03:02.664Z,85.60
2023-04-23T02:05:41.703Z,85.60
2023-04-23T02:08:24.887Z,85.70
2023-04-23T02:11:00.725Z,85.70
2023-04-23T02:16:45.779Z,85.80
2023-04-23T02:27:59.036Z,85.80
2023-04-23T02:30:53.331Z,85.80
2023-04-23T02:33:34.604Z,85.90
2023-04-23T02:39:20.378Z,85.90
2023-04-23T02:42:14.489Z,85.80
2023-04-23T02:44:45.459Z,86.00
2023-04-23T02:47:18.871Z,86.00
2023-04-23T02:49:47.050Z,86.00
2023-04-23T02:52:14.990Z,86.10
2023-04-23T02:54:43.368Z,86.20
2023-04-23T02:57:18.735Z,86.20
2023-04-23T02:59:48.180Z,86.20
2023-04-23T03:02:24.158Z,86.30
2023-04-23T03:05:01.035Z,86.30
2023-04-23T03:07:31.929Z,86.40
2023-04-23T03:10:02.786Z,87.20
2023-04-23T03:12:31.050Z,86.40
2023-04-23T03:14:59.147Z,86.40
2023-04-23T03:17:28.437Z,86.50
2023-04-23T03:20:32.639Z,86.60
2023-04-23T03:23:00.870Z,86.70
2023-04-23T03:25:28.809Z,86.70
2023-04-23T03:27:56.766Z,86.70
2023-04-23T03:30:24.881Z,86.90
2023-04-23T03:32:57.778Z,86.90
2023-04-23T03:35:29.659Z,86.90
2023-04-23T03:37:57.630Z,87.00
2023-04-23T03:40:25.872Z,87.10
2023-04-23T03:42:57.864Z,87.10
2023-04-23T03:45:26.276Z,87.20
2023-04-23T03:47:55.634Z,87.20
2023-04-23T03:50:26.101Z,87.20
2023-04-23T03:52:54.378Z,87.20
2023-04-23T03:55:22.548Z,87.30
2023-04-23T03:57:50.415Z,87.30
2023-04-23T04:03:29.761Z,87.50
2023-04-23T04:05:57.769Z,87.50
2023-04-23T04:08:26.604Z,87.50
2023-04-23T04:10:54.568Z,87.60
2023-04-23T04:13:26.815Z,87.70
2023-04-23T04:15:59.719Z,87.70
2023-04-23T04:21:41.772Z,87.90
2023-04-23T04:24:37.147Z,87.80
2023-04-23T04:30:07.753Z,87.90
2023-04-23T04:32:38.792Z,88.10
2023-04-23T04:35:10.902Z,88.10
2023-04-23T04:37:38.862Z,88.20
2023-04-23T04:40:20.574Z,88.30
2023-04-23T04:43:00.366Z,88.30
2023-04-23T04:45:30.782Z,88.30
2023-04-23T04:48:05.324Z,88.30
2023-04-23T04:50:42.979Z,88.50
2023-04-23T04:53:11.244Z,88.60
2023-04-23T04:55:54.219Z,88.60
2023-04-23T04:58:23.759Z,88.70
2023-04-23T05:01:10.471Z,88.80
2023-04-23T05:03:39.186Z,88.80
2023-04-23T05:09:18.666Z,89.00
2023-04-23T05:11:47.028Z,89.00
2023-04-23T05:14:17.414Z,89.00
2023-04-23T05:16:45.779Z,89.20
2023-04-23T05:19:13.743Z,89.20
2023-04-23T05:21:51.480Z,89.30
2023-04-23T05:24:19.994Z,89.50
2023-04-23T05:26:47.910Z,89.40
2023-04-23T05:29:19.261Z,90.00
2023-04-23T05:31:59.625Z,89.40
2023-04-23T05:34:30.296Z,89.50
2023-04-23T05:37:45.093Z,89.50
2023-04-23T05:40:14.485Z,89.70
2023-04-23T05:42:42.377Z,89.60
2023-04-23T05:45:11.484Z,89.70
2023-04-23T05:50:41.265Z,89.70
2023-04-23T05:59:00.238Z,89.90
2023-04-23T06:06:53.951Z,90.00
2023-04-23T06:13:00.896Z,90.00
2023-04-23T07:02:16.930Z,90.60
2023-04-23T07:04:52.953Z,90.60
2023-04-23T07:26:46.424Z,90.80
2023-04-23T08:53:47.520Z,90.70
2023-04-23T09:04:19.001Z,90.70
2023-04-23T09:07:04.550Z,90.70
2023-04-23T09:12:45.026Z,90.70
2023-04-23T09:15:13.851Z,90.70
2023-04-23T09:17:44.205Z,90.70
2023-04-23T09:20:14.640Z,90.60
2023-04-23T09:22:46.738Z,90.70
2023-04-23T09:25:49.869Z,90.70
2023-04-23T09:28:20.246Z,90.60
2023-04-23T09:30:49.789Z,90.60
2023-04-23T09:33:18.464Z,90.70
2023-04-23T09:35:48.020Z,90.60
2023-04-23T09:38:22.475Z,90.60
2023-04-23T09:40:51.658Z,90.60
2023-04-23T09:43:24.997Z,90.60
2023-04-23T09:45:52.917Z,90.60
2023-04-23T09:48:23.192Z,90.60
2023-04-23T09:50:51.033Z,90.60
2023-04-23T09:53:21.472Z,90.50
2023-04-23T09:55:51.992Z,90.40
2023-04-23T09:58:28.835Z,90.50
2023-04-23T10:01:07.900Z,90.50
2023-04-23T10:03:36.156Z,90.50
2023-04-23T10:06:04.509Z,90.40
2023-04-23T10:08:33.621Z,90.50
2023-04-23T10:20:12.399Z,90.30
2023-04-23T10:22:57.767Z,90.60
2023-04-23T10:25:26.444Z,90.30
2023-04-23T10:27:56.410Z,90.20
2023-04-23T10:30:27.905Z,90.20
2023-04-23T10:32:58.002Z,90.10
2023-04-23T10:35:25.892Z,90.10
2023-04-23T10:37:54.101Z,90.30
2023-04-23T10:40:27.028Z,86.80
2023-04-23T10:42:55.474Z,85.90
2023-04-23T10:45:25.649Z,85.20
2023-04-23T10:47:56.023Z,84.60
2023-04-23T10:50:26.210Z,83.10
2023-04-23T10:52:55.216Z,82.50
2023-04-23T10:55:25.456Z,81.50
2023-04-23T10:58:04.112Z,81.10
2023-04-23T11:00:46.405Z,80.70
2023-04-23T11:03:33.619Z,80.50
2023-04-23T11:06:05.569Z,80.20
2023-04-23T11:08:35.750Z,79.70
2023-04-23T11:11:08.657Z,79.70
2023-04-23T11:13:36.377Z,79.60
2023-04-23T11:16:21.958Z,78.70
2023-04-23T11:19:02.268Z,79.50
2023-04-23T11:22:02.156Z,80.00
2023-04-23T11:24:32.157Z,79.50
2023-04-23T11:27:01.128Z,79.00
2023-04-23T11:29:29.902Z,79.20
2023-04-23T11:32:03.087Z,78.90
2023-04-23T12:06:14.684Z,78.30
2023-04-23T12:08:43.138Z,79.30
2023-04-23T12:11:13.218Z,77.90
2023-04-23T12:13:42.871Z,77.70
2023-04-23T12:16:11.224Z,78.60
2023-04-23T12:18:42.408Z,76.30
2023-04-23T12:21:12.220Z,76.10
2023-04-23T12:23:44.420Z,77.00
2023-04-23T12:26:13.603Z,76.20
2023-04-23T12:28:47.691Z,77.90
2023-04-23T12:31:21.000Z,76.80
2023-04-23T12:33:48.817Z,75.40
2023-04-23T12:36:17.255Z,74.70
2023-04-23T12:38:46.377Z,74.30
2023-04-23T12:41:14.236Z,73.10
2023-04-23T12:43:42.380Z,73.70
2023-04-23T12:46:10.305Z,74.00
2023-04-23T12:48:48.800Z,75.70
2023-04-23T12:51:22.024Z,75.40
2023-04-23T12:54:58.307Z,75.20
2023-04-23T13:01:23.412Z,73.00
2023-04-23T13:03:49.885Z,73.50
2023-04-23T13:06:26.268Z,72.80
2023-04-23T13:09:38.663Z,70.50
2023-04-23T13:15:32.708Z,71.70
2023-04-23T13:18:02.189Z,71.40
2023-04-23T13:21:05.318Z,70.00
2023-04-23T13:24:15.096Z,71.30
2023-04-23T13:26:45.328Z,71.20
2023-04-23T13:29:16.475Z,71.00
2023-04-23T13:31:51.118Z,70.80
2023-04-23T13:34:21.027Z,72.40
2023-04-23T13:37:12.928Z,74.70
2023-04-23T13:43:52.604Z,84.00
2023-04-23T13:46:27.291Z,86.90
2023-04-23T13:48:57.647Z,87.00
2023-04-23T13:51:36.408Z,86.70
2023-04-23T13:54:04.686Z,88.00
2023-04-23T13:56:32.963Z,87.70
2023-04-23T13:59:19.514Z,87.60
2023-04-23T14:01:56.718Z,88.10
2023-04-23T14:05:00.069Z,88.60
2023-04-23T14:07:32.813Z,87.20
2023-04-23T14:10:05.534Z,87.40
2023-04-23T14:12:38.338Z,87.60
2023-04-23T14:15:10.527Z,88.50
2023-04-23T14:17:45.247Z,86.90
2023-04-23T14:20:15.487Z,86.00
2023-04-23T14:23:10.320Z,85.20
2023-04-23T14:25:47.667Z,85.30
2023-04-23T14:28:29.431Z,85.90
2023-04-23T14:30:58.482Z,84.80
2023-04-23T14:33:27.902Z,84.10
2023-04-23T14:35:55.727Z,83.50
2023-04-23T14:38:23.624Z,81.20
2023-04-23T14:40:51.363Z,82.60
2023-04-23T14:43:19.295Z,79.50
2023-04-23T14:45:47.160Z,77.90
2023-04-23T14:48:15.032Z,77.50
2023-04-23T14:50:45.275Z,74.20
2023-04-23T14:53:12.975Z,75.40
2023-04-23T14:55:43.096Z,75.60
2023-04-23T14:58:10.948Z,76.60
2023-04-23T15:00:39.274Z,77.70
2023-04-23T15:03:25.005Z,78.90
2023-04-23T15:05:54.478Z,79.70
2023-04-23T15:08:22.339Z,79.00
2023-04-23T15:10:54.864Z,78.60
2023-04-23T15:13:41.528Z,78.80
2023-04-23T15:16:23.397Z,78.20
2023-04-23T15:19:08.747Z,77.10
2023-04-23T15:21:37.945Z,75.70
2023-04-23T15:24:07.802Z,76.30
2023-04-23T15:26:39.360Z,75.60
2023-04-23T15:29:08.888Z,75.30
2023-04-23T15:31:44.964Z,74.60
2023-04-23T15:34:12.833Z,75.30
2023-04-23T15:36:41.977Z,75.30
2023-04-23T15:39:11.924Z,75.30
2023-04-23T15:41:44.223Z,75.50
2023-04-23T15:44:18.118Z,75.80
2023-04-23T15:46:48.848Z,75.70
2023-04-23T15:49:16.579Z,77.90
2023-04-23T15:51:45.746Z,79.00
2023-04-23T15:54:15.892Z,78.60
2023-04-23T15:56:43.631Z,78.30
2023-04-23T15:59:12.635Z,78.40
2023-04-23T16:01:45.464Z,78.10
2023-04-23T16:04:13.430Z,79.00
2023-04-23T16:06:41.751Z,78.80
2023-04-23T16:09:10.892Z,78.30
2023-04-23T16:11:39.417Z,77.40
2023-04-23T16:14:09.079Z,77.30
2023-04-23T16:16:38.143Z,76.90
2023-04-23T16:19:06.314Z,77.40
2023-04-23T16:21:34.138Z,78.40
2023-04-23T16:24:02.176Z,79.70
2023-04-23T16:26:31.386Z,80.40
2023-04-23T16:29:06.266Z,80.40
2023-04-23T16:31:39.750Z,81.40
2023-04-23T16:34:07.667Z,81.10
2023-04-23T16:36:35.476Z,80.60
2023-04-23T16:39:04.212Z,80.90
2023-04-23T16:41:33.501Z,81.30
2023-04-23T16:44:03.267Z,82.40
2023-04-23T16:46:31.841Z,81.50
2023-04-23T16:49:00.343Z,81.40
2023-04-23T16:51:29.459Z,81.30
2023-04-23T16:53:57.702Z,81.40
2023-04-23T16:56:25.695Z,81.40
2023-04-23T16:58:54.774Z,81.50
2023-04-23T17:01:22.801Z,82.00
2023-04-23T17:04:01.197Z,82.30
2023-04-23T17:06:42.896Z,82.30
2023-04-23T17:09:14.305Z,82.50
2023-04-23T17:11:44.384Z,82.90
2023-04-23T17:14:13.494Z,82.50
2023-04-23T17:16:44.397Z,82.60
2023-04-23T17:19:14.737Z,82.50
2023-04-23T17:21:42.871Z,82.90
2023-04-23T17:24:10.798Z,83.10
2023-04-23T17:26:39.677Z,82.90
2023-04-23T17:29:08.290Z,83.40
2023-04-23T17:31:38.521Z,83.40
2023-04-23T17:34:08.315Z,83.50
2023-04-23T17:36:36.152Z,83.40
2023-04-23T17:39:04.034Z,83.40
2023-04-23T17:41:32.769Z,83.40
2023-04-23T17:44:00.564Z,83.40
2023-04-23T17:46:28.418Z,83.40
2023-04-23T17:48:57.689Z,83.50
2023-04-23T17:51:25.595Z,83.50
2023-04-23T17:53:53.556Z,83.50
2023-04-23T17:56:21.745Z,83.60
2023-04-23T17:58:49.693Z,83.70
2023-04-23T18:01:17.982Z,83.80
2023-04-23T18:03:47.754Z,83.90
2023-04-23T18:06:17.011Z,83.90
2023-04-23T18:08:44.885Z,84.10
2023-04-23T18:11:12.768Z,84.10
2023-04-23T18:13:40.655Z,84.20
2023-04-23T18:16:08.440Z,84.10
2023-04-23T18:18:41.438Z,84.30
2023-04-23T18:21:13.302Z,84.30
2023-04-23T18:23:44.709Z,84.40
2023-04-23T18:26:20.505Z,84.30
2023-04-23T18:28:48.429Z,84.20
2023-04-23T18:31:17.842Z,84.40
2023-04-23T18:36:49.699Z,84.40
2023-04-23T18:39:20.826Z,84.50
2023-04-23T18:41:49.347Z,84.70
2023-04-23T18:44:19.483Z,84.60
2023-04-23T18:46:47.532Z,84.50
2023-04-23T18:49:42.728Z,84.60
2023-04-23T18:52:16.308Z,84.60
2023-04-23T18:54:45.706Z,84.80
2023-04-23T18:57:20.778Z,84.80
2023-04-23T18:59:49.104Z,84.80
2023-04-23T19:02:28.151Z,84.90
2023-04-23T19:05:05.415Z,84.90
2023-04-23T19:07:39.001Z,84.90
2023-04-23T19:10:10.096Z,84.90
2023-04-23T19:12:41.050Z,85.00
2023-04-23T19:15:28.491Z,85.00
2023-04-23T19:17:58.280Z,85.00
2023-04-23T19:20:26.501Z,85.00
2023-04-23T19:22:54.612Z,85.10
2023-04-23T19:25:24.261Z,85.10
2023-04-23T19:27:54.333Z,85.10
2023-04-23T19:30:22.425Z,85.20
2023-04-23T19:32:50.459Z,85.20
2023-04-23T19:35:18.701Z,85.30
2023-04-23T19:37:47.197Z,85.30
2023-04-23T19:40:16.983Z,85.40
2023-04-23T19:42:46.619Z,85.30
2023-04-23T19:45:17.720Z,85.30
2023-04-23T19:47:46.173Z,85.40
2023-04-23T19:50:14.540Z,85.40
2023-04-23T19:52:45.818Z,85.50
2023-04-23T19:55:13.956Z,85.50
2023-04-23T19:57:42.528Z,85.50
2023-04-23T20:00:14.331Z,85.50
2023-04-23T20:02:43.351Z,85.70
2023-04-23T20:05:11.688Z,85.70
2023-04-23T20:07:40.987Z,85.60
2023-04-23T20:10:09.811Z,85.60
2023-04-23T20:12:42.644Z,85.70
2023-04-23T20:15:18.901Z,85.70
2023-04-23T20:17:47.013Z,85.70
2023-04-23T20:20:14.937Z,85.80
2023-04-23T20:22:43.059Z,85.80
2023-04-23T20:25:15.154Z,85.90
2023-04-23T20:27:43.087Z,85.90
2023-04-23T20:30:16.441Z,85.90
2023-04-23T20:32:47.955Z,86.00
2023-04-23T20:35:16.314Z,85.80
2023-04-23T20:37:47.902Z,86.00
2023-04-23T20:40:16.225Z,86.00
2023-04-23T20:42:46.476Z,86.00
2023-04-23T20:45:16.438Z,86.00
2023-04-23T20:47:48.217Z,86.00
2023-04-23T20:50:16.508Z,86.00
2023-04-23T20:52:44.607Z,86.20
2023-04-23T20:55:12.447Z,86.20
2023-04-23T20:57:42.497Z,86.10
2023-04-23T21:00:12.777Z,86.20
2023-04-23T21:02:50.576Z,86.20
2023-04-23T21:05:20.712Z,86.20
2023-04-23T21:07:48.887Z,86.10
2023-04-23T21:10:17.251Z,86.00
2023-04-23T21:12:47.008Z,86.20
2023-04-23T21:15:17.082Z,86.20
2023-04-23T21:17:46.432Z,86.20
2023-04-23T21:20:14.478Z,86.20
2023-04-23T21:22:42.307Z,86.20
2023-04-23T21:25:10.759Z,86.30
2023-04-23T21:27:38.640Z,86.20
2023-04-23T21:30:10.028Z,86.20
2023-04-23T21:32:40.230Z,86.20
2023-04-23T21:35:10.762Z,86.20
2023-04-23T21:37:38.681Z,86.30
2023-04-23T21:40:09.140Z,86.30
2023-04-23T21:42:37.276Z,86.40
2023-04-23T21:45:06.322Z,86.30
2023-04-23T21:47:34.209Z,86.40
2023-04-23T21:50:02.101Z,86.30
2023-04-23T21:52:33.260Z,86.40
2023-04-23T21:55:01.203Z,86.30
2023-04-23T21:57:29.039Z,86.30
2023-04-23T21:59:56.926Z,86.40
2023-04-23T22:02:26.920Z,86.40
2023-04-23T22:04:57.821Z,86.40
2023-04-23T22:07:32.293Z,86.50
2023-04-23T22:10:05.500Z,86.50
2023-04-23T22:12:34.874Z,86.40
2023-04-23T22:15:02.848Z,86.40
2023-04-23T22:17:31.309Z,86.50
2023-04-23T22:20:01.348Z,87.30
2023-04-23T22:22:29.205Z,86.50
2023-04-23T22:24:57.007Z,86.50
2023-04-23T22:27:26.336Z,86.70
2023-04-23T22:29:54.480Z,86.60
2023-04-23T22:32:22.390Z,86.60
2023-04-23T22:34:50.328Z,86.70
2023-04-23T22:37:21.727Z,86.60
2023-04-23T22:39:49.769Z,86.70
2023-04-23T22:42:20.619Z,86.70
2023-04-23T22:44:49.820Z,86.70
2023-04-23T22:47:17.864Z,86.90
2023-04-23T22:49:45.733Z,86.90
2023-04-23T22:52:14.205Z,87.00
2023-04-23T22:54:42.021Z,87.10
2023-04-23T22:57:09.969Z,87.10
2023-04-23T22:59:40.763Z,87.10
2023-04-23T23:02:10.246Z,87.20
2023-04-23T23:04:38.967Z,87.20
2023-04-23T23:07:07.626Z,87.40
2023-04-23T23:09:35.652Z,87.40
2023-04-23T23:12:06.489Z,87.40
2023-04-23T23:14:37.566Z,87.60
2023-04-23T23:17:06.623Z,87.80
2023-04-23T23:19:35.865Z,87.80
2023-04-23T23:22:03.966Z,88.00
2023-04-23T23:24:31.803Z,88.00
2023-04-23T23:26:59.654Z,87.70
2023-04-23T23:29:27.464Z,88.10
2023-04-23T23:31:56.817Z,88.00
2023-04-23T23:34:24.649Z,88.20
2023-04-23T23:36:54.089Z,88.20
2023-04-23T23:39:21.959Z,88.20
2023-04-23T23:41:49.809Z,88.20
2023-04-23T23:44:17.631Z,88.20
2023-04-23T23:46:45.632Z,88.20
2023-04-23T23:49:14.315Z,88.20
2023-04-23T23:51:45.013Z,88.20
2023-04-23T23:54:14.544Z,88.10
2023-04-23T23:56:42.388Z,88.20
2023-04-23T23:59:10.190Z,88.10
